Time;durP1;ratioP1;P1;durP2;ratioP2;P2;SDS_P1;SDS_P2;PMS_P1;PMS_P2;Temp;Humidity;BMP_temperature;BMP_pressure;BME280_temperature;BME280_humidity;BME280_pressure;Samples;Min_cycle;Max_cycle;Signal;HPM_P1;HPM_P2
2023/12/25 00:01:05;;;;;;;4.25;0.80;;;;;;;19.45;47.46;100646.28;16108819;19;131269;-68
2023/12/25 00:06:27;;;;;;;2.72;1.00;;;;;;;19.40;47.64;100637.91;16109882;19;130189;-68
2023/12/25 00:11:49;;;;;;;3.55;0.70;;;;;;;19.36;47.54;100632.88;16110415;19;130382;-68
2023/12/25 00:17:13;;;;;;;6.03;0.75;;;;;;;19.32;47.41;100645.56;16108226;19;129860;-68
2023/12/25 00:22:35;;;;;;;3.88;0.85;;;;;;;19.31;47.47;100638.38;16113160;19;130164;-68
2023/12/25 00:27:57;;;;;;;3.78;0.70;;;;;;;19.28;47.76;100649.13;16109760;19;130973;-67
2023/12/25 00:33:19;;;;;;;5.53;1.00;;;;;;;19.24;47.50;100646.03;16108539;19;130858;-67
2023/12/25 00:38:41;;;;;;;4.18;0.60;;;;;;;19.20;47.56;100631.81;16106033;19;130899;-67
2023/12/25 00:44:03;;;;;;;6.13;0.82;;;;;;;19.18;47.88;100652.59;16105790;19;130589;-67
2023/12/25 00:49:25;;;;;;;2.58;0.65;;;;;;;19.15;48.07;100647.56;16105464;19;130167;-68
2023/12/25 00:54:47;;;;;;;3.47;0.57;;;;;;;19.13;47.94;100658.06;16102039;19;130140;-68
2023/12/25 01:00:10;;;;;;;2.10;0.75;;;;;;;19.11;48.01;100643.59;16103156;19;130636;-67
2023/12/25 01:05:31;;;;;;;1.20;0.40;;;;;;;19.07;47.90;100671.00;16105476;19;130025;-68
2023/12/25 01:10:53;;;;;;;2.17;0.50;;;;;;;19.05;48.12;100673.19;16106540;19;130020;-67
2023/12/25 01:16:15;;;;;;;2.90;0.43;;;;;;;19.01;48.25;100678.41;16108220;19;130817;-67
2023/12/25 01:21:37;;;;;;;1.67;0.40;;;;;;;19.01;47.74;100681.19;16106582;19;131261;-67
2023/12/25 01:26:59;;;;;;;2.00;0.50;;;;;;;18.99;47.80;100679.78;16102705;19;131176;-68
2023/12/25 01:32:21;;;;;;;1.95;0.40;;;;;;;18.96;47.89;100703.28;16104021;19;129745;-67
2023/12/25 01:37:43;;;;;;;1.40;0.45;;;;;;;18.95;48.11;100707.19;16114829;19;131362;-67
2023/12/25 01:43:05;;;;;;;3.35;0.55;;;;;;;18.93;48.07;100692.72;16115397;19;130028;-67
2023/12/25 01:48:27;;;;;;;3.08;0.50;;;;;;;18.91;47.99;100689.38;16120992;19;129548;-67
2023/12/25 01:53:50;;;;;;;1.67;0.40;;;;;;;18.89;48.01;100697.09;16118797;19;130620;-67
2023/12/25 01:59:12;;;;;;;0.63;0.25;;;;;;;18.88;48.10;100706.50;16114192;19;130942;-67
2023/12/25 02:04:34;;;;;;;1.33;0.30;;;;;;;18.86;48.03;100709.53;16113311;19;130511;-68
2023/12/25 02:09:56;;;;;;;1.13;0.30;;;;;;;18.84;48.43;100710.84;16112331;19;129858;-67
2023/12/25 02:15:18;;;;;;;1.20;0.35;;;;;;;18.82;48.19;100701.97;16117285;19;129534;-66
2023/12/25 02:20:40;;;;;;;1.73;0.30;;;;;;;18.80;48.20;100695.84;16109448;19;130456;-67
2023/12/25 02:26:04;;;;;;;0.43;0.20;;;;;;;18.77;48.30;100681.41;16114391;19;130224;-67
2023/12/25 02:31:27;;;;;;;1.17;0.38;;;;;;;18.75;48.38;100675.25;16110216;19;130543;-67
2023/12/25 02:36:49;;;;;;;1.45;0.40;;;;;;;18.75;48.75;100691.06;16107094;19;129703;-67
2023/12/25 02:42:10;;;;;;;0.47;0.20;;;;;;;18.73;48.92;100701.56;16119001;19;130830;-67
2023/12/25 02:47:32;;;;;;;1.13;0.20;;;;;;;18.71;48.88;100704.56;16117505;19;129471;-67
2023/12/25 02:52:54;;;;;;;0.73;0.30;;;;;;;18.68;48.57;100691.22;16110817;19;134605;-67
2023/12/25 02:58:16;;;;;;;1.15;0.10;;;;;;;18.67;48.82;100700.63;16112565;19;129741;-67
2023/12/25 03:03:38;;;;;;;0.93;0.20;;;;;;;18.66;48.83;100710.03;16109659;19;131359;-67
2023/12/25 03:09:00;;;;;;;0.73;0.20;;;;;;;18.66;48.89;100709.19;16110896;19;130255;-67
2023/12/25 03:14:22;;;;;;;0.68;0.20;;;;;;;18.65;48.69;100718.59;16115746;19;129473;-67
2023/12/25 03:19:44;;;;;;;0.80;0.25;;;;;;;18.63;49.10;100704.16;16116753;19;130384;-66
2023/12/25 03:25:06;;;;;;;0.57;0.20;;;;;;;18.62;49.11;100731.03;16112301;19;129551;-66
2023/12/25 03:30:28;;;;;;;0.55;0.15;;;;;;;18.61;48.88;100707.16;16110683;19;130593;-66
2023/12/25 03:35:50;;;;;;;1.25;0.10;;;;;;;18.58;48.89;100696.63;16107707;19;129829;-66
2023/12/25 03:41:13;;;;;;;1.45;0.30;;;;;;;18.58;48.83;100707.69;16110895;19;131108;-65
2023/12/25 03:46:35;;;;;;;0.40;0.15;;;;;;;18.57;48.99;100708.78;16111009;19;131375;-67
2023/12/25 03:51:57;;;;;;;0.47;0.15;;;;;;;18.56;49.16;100724.56;16108752;19;132096;-66
2023/12/25 03:57:20;;;;;;;0.57;0.30;;;;;;;18.54;49.21;100723.97;16107946;19;134054;-66
2023/12/25 04:02:42;;;;;;;0.50;0.10;;;;;;;18.53;48.79;100730.59;16105066;19;129656;-66
2023/12/25 04:08:04;;;;;;;1.23;0.20;;;;;;;18.52;48.99;100725.31;16108871;19;130125;-66
2023/12/25 04:13:26;;;;;;;0.57;0.20;;;;;;;18.50;49.04;100728.34;16106816;19;131120;-68
2023/12/25 04:18:49;;;;;;;0.73;0.20;;;;;;;18.50;49.46;100717.25;16107092;19;131443;-67
2023/12/25 04:24:11;;;;;;;0.75;0.10;;;;;;;18.49;49.77;100725.81;16107726;19;128927;-67
2023/12/25 04:29:33;;;;;;;0.93;0.20;;;;;;;18.48;49.72;100724.13;16105239;19;131223;-66
2023/12/25 04:34:55;;;;;;;0.40;0.17;;;;;;;18.46;49.88;100705.81;16104071;19;130623;-66
2023/12/25 04:40:17;;;;;;;0.25;0.10;;;;;;;18.45;49.79;100701.41;16105332;19;130847;-67
2023/12/25 04:45:39;;;;;;;0.55;0.20;;;;;;;18.43;49.75;100699.94;16109516;19;132035;-67
2023/12/25 04:51:02;;;;;;;0.28;0.13;;;;;;;18.42;49.53;100693.56;16104753;19;129618;-66
2023/12/25 04:56:24;;;;;;;0.57;0.17;;;;;;;18.41;49.66;100663.34;16105452;19;129996;-66
2023/12/25 05:01:50;;;;;;;0.30;0.10;;;;;;;18.38;49.48;100670.19;16099322;19;130906;-66
2023/12/25 05:07:12;;;;;;;;;;;;;;;18.33;49.34;100689.53;16107264;19;130795;-66
2023/12/25 05:12:34;;;;;;;0.20;0.10;;;;;;;18.36;49.47;100694.53;16116338;19;131852;-66
2023/12/25 05:17:56;;;;;;;1.05;0.40;;;;;;;18.35;49.22;100692.03;16116982;19;129669;-66
2023/12/25 05:23:18;;;;;;;0.03;0.00;;;;;;;18.33;49.38;100683.13;16116687;19;130615;-67
2023/12/25 05:28:40;;;;;;;0.17;0.10;;;;;;;18.31;49.44;100680.63;16116177;19;130979;-66
2023/12/25 05:34:02;;;;;;;0.40;0.10;;;;;;;18.31;49.37;100675.06;16116740;19;129645;-66
2023/12/25 05:39:24;;;;;;;0.40;0.10;;;;;;;18.29;49.38;100677.25;16120251;19;129998;-66
2023/12/25 05:44:46;;;;;;;0.55;0.20;;;;;;;18.28;49.66;100678.34;16120618;19;129816;-67
2023/12/25 05:50:08;;;;;;;0.10;0.10;;;;;;;18.27;49.29;100680.28;16115587;19;129900;-66
2023/12/25 05:55:30;;;;;;;0.20;0.10;;;;;;;18.25;49.70;100682.44;16111621;19;132184;-66
2023/12/25 06:00:52;;;;;;;0.10;0.00;;;;;;;18.25;49.49;100684.38;16109431;19;130613;-65
2023/12/25 06:06:14;;;;;;;0.10;0.10;;;;;;;18.25;49.11;100681.59;16111874;19;130434;-66
2023/12/25 06:11:36;;;;;;;0.10;0.00;;;;;;;18.25;49.35;100687.13;16114265;19;131956;-66
2023/12/25 06:16:58;;;;;;;0.30;0.10;;;;;;;18.25;49.42;100676.91;16114271;19;132957;-66
2023/12/25 06:22:20;;;;;;;1.10;0.20;;;;;;;18.27;49.13;100690.50;16112977;19;131414;-66
2023/12/25 06:27:42;;;;;;;0.10;0.10;;;;;;;18.28;49.11;100697.72;16114241;19;131501;-67
2023/12/25 06:33:19;;;;;;;0.20;0.08;;;;;;;18.28;48.83;100692.19;16111633;19;129367;-65
2023/12/25 06:38:42;;;;;;;0.20;0.00;;;;;;;18.27;49.38;100690.50;16114962;19;129910;-67
2023/12/25 06:44:04;;;;;;;0.30;0.20;;;;;;;18.25;49.44;100695.44;16112969;19;130726;-67
2023/12/25 06:49:26;;;;;;;0.10;0.08;;;;;;;18.25;49.42;100681.59;16112914;19;131782;-66
2023/12/25 06:54:48;;;;;;;0.35;0.10;;;;;;;18.23;49.38;100672.69;16111418;19;130828;-75
2023/12/25 07:00:11;;;;;;;0.10;0.05;;;;;;;18.24;49.27;100669.69;16119919;19;131197;-82
2023/12/25 07:05:33;;;;;;;1.15;0.10;;;;;;;18.37;49.45;100662.97;16119731;19;130349;-72
2023/12/25 07:10:55;;;;;;;4.63;0.20;;;;;;;18.59;49.61;100670.56;16116896;19;131300;-73
2023/12/25 07:16:23;;;;;;;1.38;0.10;;;;;;;18.93;49.52;100676.09;16121839;19;131666;-73
2023/12/25 07:21:45;;;;;;;2.75;0.10;;;;;;;19.28;49.02;100671.31;16114126;19;130733;-73
2023/12/25 07:27:08;;;;;;;0.50;0.10;;;;;;;19.63;48.53;100684.81;16116350;19;130133;-72
2023/12/25 07:32:30;;;;;;;0.85;0.10;;;;;;;19.94;48.31;100689.88;16117129;19;130968;-74
2023/12/25 07:37:55;;;;;;;0.38;0.05;;;;;;;20.12;47.65;100697.84;16119707;19;129651;-72
2023/12/25 07:43:17;;;;;;;0.50;0.10;;;;;;;20.22;46.48;100702.69;16120364;19;129541;-66
2023/12/25 07:48:39;;;;;;;0.73;0.10;;;;;;;20.19;46.07;100699.59;16106152;19;135144;-63
2023/12/25 07:54:02;;;;;;;1.10;0.13;;;;;;;20.13;45.50;100712.59;16095471;19;130700;-63
2023/12/25 07:59:24;;;;;;;1.58;0.40;;;;;;;20.06;45.40;100703.66;16106640;19;131284;-63
2023/12/25 08:04:46;;;;;;;1.45;0.30;;;;;;;19.99;45.75;100721.34;16098303;19;130415;-63
2023/12/25 08:10:08;;;;;;;4.05;0.40;;;;;;;19.93;45.66;100732.63;16102209;19;131097;-63
2023/12/25 08:15:30;;;;;;;1.75;0.13;;;;;;;19.86;45.74;100727.25;16107237;19;130077;-63
2023/12/25 08:20:52;;;;;;;3.45;0.15;;;;;;;19.80;45.33;100742.19;16104840;19;129715;-64
2023/12/25 08:26:14;;;;;;;0.68;0.13;;;;;;;19.75;45.52;100750.44;16105537;19;130514;-63
2023/12/25 08:31:38;;;;;;;0.52;0.10;;;;;;;19.68;45.75;100757.03;16101567;19;129615;-64
2023/12/25 08:37:01;;;;;;;0.30;0.10;;;;;;;19.64;45.94;100742.00;16103612;19;131262;-64
2023/12/25 08:42:23;;;;;;;0.55;0.10;;;;;;;19.74;45.99;100741.28;16108164;19;130378;-64
2023/12/25 08:47:45;;;;;;;1.48;0.30;;;;;;;19.85;46.18;100745.00;16120361;19;129894;-63
2023/12/25 08:53:08;;;;;;;6.57;0.52;;;;;;;19.94;45.96;100740.69;16119327;19;131563;-69
2023/12/25 08:58:30;;;;;;;1.45;0.10;;;;;;;20.02;46.24;100752.47;16119114;19;131851;-65
2023/12/25 09:03:52;;;;;;;3.13;0.30;;;;;;;20.04;46.50;100756.66;16118226;19;129734;-61
2023/12/25 09:09:14;;;;;;;3.90;0.35;;;;;;;20.02;46.63;100760.81;16113185;19;132301;-60
2023/12/25 09:14:36;;;;;;;3.17;0.30;;;;;;;19.95;46.86;100770.13;16109448;19;132063;-58
2023/12/25 09:19:58;;;;;;;3.00;0.20;;;;;;;19.89;46.91;100781.41;16113156;19;129785;-58
2023/12/25 09:25:20;;;;;;;4.18;0.30;;;;;;;19.84;47.45;100782.19;16113206;19;131705;-61
2023/12/25 09:30:43;;;;;;;1.13;0.30;;;;;;;19.78;47.29;100797.13;16117688;19;129939;-62
2023/12/25 09:36:07;;;;;;;1.45;0.10;;;;;;;19.72;47.52;100814.78;16115915;19;132487;-60
2023/12/25 09:41:32;;;;;;;0.00;0.00;;;;;;;19.68;48.05;100820.88;16123245;19;131404;-61
2023/12/25 09:46:56;;;;;;;3.15;0.17;;;;;;;19.71;47.47;100827.00;16122027;19;135268;-60
2023/12/25 09:52:19;;;;;;;3.85;0.20;;;;;;;19.75;47.93;100825.41;16116280;19;130310;-61
2023/12/25 09:57:43;;;;;;;0.70;0.20;;;;;;;19.78;47.93;100813.78;16116960;19;130977;-61
2023/12/25 10:03:06;;;;;;;4.07;0.30;;;;;;;19.83;48.02;100827.72;16116946;19;129829;-61
2023/12/25 10:08:30;;;;;;;2.20;0.30;;;;;;;19.87;48.35;100828.06;16119743;19;129278;-61
2023/12/25 10:13:54;;;;;;;4.60;0.10;;;;;;;19.88;48.00;100819.47;16115795;19;130990;-62
2023/12/25 10:19:16;;;;;;;1.10;0.20;;;;;;;19.89;48.46;100817.50;16117592;19;129662;-60
2023/12/25 10:24:38;;;;;;;2.22;0.20;;;;;;;19.91;48.75;100813.41;16115364;19;129949;-61
2023/12/25 10:30:02;;;;;;;0.82;0.10;;;;;;;19.89;48.44;100832.25;16091895;19;130926;-62
2023/12/25 10:35:25;;;;;;;0.70;0.20;;;;;;;19.88;48.46;100833.34;16113802;19;129623;-61
2023/12/25 10:40:47;;;;;;;1.73;0.17;;;;;;;19.86;48.81;100831.94;16118238;19;130525;-65
2023/12/25 10:46:09;;;;;;;8.02;0.50;;;;;;;19.84;48.62;100808.03;16114824;19;131727;-61
2023/12/25 10:51:34;;;;;;;2.42;0.40;;;;;;;19.85;49.31;100828.31;16113612;19;131597;-61
2023/12/25 10:56:57;;;;;;;1.90;0.50;;;;;;;19.87;49.33;100823.34;16117818;19;130309;-62
2023/12/25 11:02:20;;;;;;;3.40;0.60;;;;;;;19.93;49.33;100816.78;16112983;19;129996;-62
2023/12/25 11:07:43;;;;;;;2.78;0.90;;;;;;;19.98;49.39;100825.16;16111058;19;130781;-62
2023/12/25 11:13:06;;;;;;;2.55;0.80;;;;;;;20.08;50.11;100804.19;16108794;19;130320;-61
2023/12/25 11:18:28;;;;;;;2.78;0.65;;;;;;;20.18;49.70;100812.66;16105780;19;131004;-60
2023/12/25 11:23:51;;;;;;;1.95;0.80;;;;;;;20.31;49.90;100824.47;16111499;19;129768;-62
2023/12/25 11:29:15;;;;;;;2.70;0.70;;;;;;;20.38;50.06;100816.75;16112269;19;131090;-61
2023/12/25 11:34:40;;;;;;;1.13;0.63;;;;;;;20.42;50.54;100812.38;16109348;19;129583;-61
2023/12/25 11:40:06;;;;;;;4.18;1.00;;;;;;;20.49;50.47;100812.97;16110866;19;131057;-60
2023/12/25 11:45:28;;;;;;;;;;;;;;;20.55;49.92;100803.63;16118091;19;130375;-62
2023/12/25 11:51:04;;;;;;;2.60;0.45;;;;;;;20.70;49.96;100796.50;16112557;19;131435;-62
2023/12/25 11:56:29;;;;;;;;;;;;;;;20.72;50.14;100799.84;16110730;19;129740;-65
2023/12/25 12:01:51;;;;;;;4.30;0.80;;;;;;;20.82;49.38;100799.97;16112584;19;129580;-62
2023/12/25 12:07:14;;;;;;;4.05;0.50;;;;;;;20.93;49.51;100794.50;16111029;19;130340;-64
2023/12/25 12:12:37;;;;;;;4.63;0.80;;;;;;;21.02;49.29;100792.94;16103899;19;131122;-65
2023/12/25 12:17:58;;;;;;;4.57;0.35;;;;;;;21.13;49.02;100789.13;16108608;19;130799;-65
2023/12/25 12:23:22;;;;;;;4.88;0.65;;;;;;;21.21;49.06;100787.78;16112064;19;129874;-67
2023/12/25 12:28:45;;;;;;;5.63;0.60;;;;;;;21.29;48.91;100803.16;16107464;19;130939;-69
2023/12/25 12:34:07;;;;;;;5.22;0.90;;;;;;;21.30;48.86;100808.44;16108532;19;130505;-71
2023/12/25 12:39:30;;;;;;;8.05;0.68;;;;;;;21.31;48.83;100795.34;16108912;19;130370;-66
2023/12/25 12:44:52;;;;;;;2.10;0.52;;;;;;;21.33;48.89;100788.44;16109756;19;131956;-68
2023/12/25 12:50:14;;;;;;;3.20;0.60;;;;;;;21.40;48.90;100785.41;16108624;19;131594;-66
2023/12/25 12:55:36;;;;;;;14.88;1.17;;;;;;;21.46;48.27;100795.44;16109282;19;130010;-72
2023/12/25 13:00:58;;;;;;;15.02;1.20;;;;;;;21.54;48.64;100798.88;16107573;19;131748;-77
2023/12/25 13:06:21;;;;;;;21.73;1.23;;;;;;;21.62;48.73;100801.97;16104791;19;129726;-72
2023/12/25 13:11:43;;;;;;;7.90;0.70;;;;;;;21.69;48.25;100798.94;16102290;19;130572;-77
2023/12/25 13:17:05;;;;;;;6.57;0.88;;;;;;;21.75;48.59;100799.81;16102571;19;129963;-76
2023/12/25 13:22:27;;;;;;;6.88;1.05;;;;;;;21.81;48.63;100804.31;16102913;19;129572;-76
2023/12/25 13:27:49;;;;;;;5.88;0.68;;;;;;;21.86;48.25;100800.72;16108039;19;129724;-78
2023/12/25 13:33:11;;;;;;;4.32;0.65;;;;;;;21.90;48.42;100807.44;16119381;19;129802;-75
2023/12/25 13:38:34;;;;;;;4.22;0.60;;;;;;;21.93;48.37;100818.00;16122003;19;129535;-75
2023/12/25 13:43:56;;;;;;;6.07;0.65;;;;;;;21.95;48.13;100811.06;16122194;19;129716;-74
2023/12/25 13:49:18;;;;;;;3.30;0.80;;;;;;;21.96;48.07;100806.31;16121462;19;129830;-72
2023/12/25 13:54:40;;;;;;;2.47;0.50;;;;;;;21.96;48.27;100809.97;16120467;19;130970;-73
2023/12/25 14:00:05;;;;;;;7.55;0.40;;;;;;;21.97;48.21;100791.28;16122021;19;129883;-69
2023/12/25 14:05:28;;;;;;;1.85;0.32;;;;;;;21.98;48.29;100798.53;16116222;19;130321;-70
2023/12/25 14:10:50;;;;;;;1.95;0.38;;;;;;;22.01;48.18;100799.94;16116698;19;131068;-67
2023/12/25 14:16:12;;;;;;;3.50;0.43;;;;;;;22.04;48.35;100802.19;16119914;19;129298;-71
2023/12/25 14:21:34;;;;;;;4.15;0.30;;;;;;;22.06;47.94;100795.22;16121323;19;129797;-67
2023/12/25 14:26:56;;;;;;;3.08;0.30;;;;;;;22.09;47.65;100780.75;16117794;19;130777;-68
2023/12/25 14:32:20;;;;;;;2.30;0.20;;;;;;;22.14;47.84;100785.50;16119338;19;129967;-68
2023/12/25 14:37:42;;;;;;;3.53;0.60;;;;;;;22.17;47.58;100781.31;16115772;19;129385;-62
2023/12/25 14:43:04;;;;;;;4.78;0.50;;;;;;;22.19;47.39;100779.94;16118452;19;129488;-64
2023/12/25 14:48:26;;;;;;;4.30;0.80;;;;;;;22.24;47.17;100779.97;16122090;19;129263;-68
2023/12/25 14:53:48;;;;;;;5.90;0.47;;;;;;;22.25;47.24;100775.25;16117817;19;130192;-66
2023/12/25 14:59:10;;;;;;;8.32;1.00;;;;;;;22.21;46.73;100774.13;16119336;19;129517;-73
2023/12/25 15:04:32;;;;;;;9.90;1.13;;;;;;;22.18;46.81;100769.06;16117587;19;129603;-64
2023/12/25 15:09:54;;;;;;;11.88;0.73;;;;;;;22.14;46.82;100777.13;16111991;19;129679;-64
2023/12/25 15:15:16;;;;;;;12.68;1.77;;;;;;;22.13;46.82;100781.03;16109726;19;129979;-64
2023/12/25 15:20:39;;;;;;;8.70;0.95;;;;;;;22.08;47.07;100776.28;16110423;19;131131;-64
2023/12/25 15:26:01;;;;;;;4.65;0.52;;;;;;;22.05;46.90;100770.44;16108532;19;129770;-64
2023/12/25 15:31:23;;;;;;;3.05;0.70;;;;;;;22.02;46.93;100773.75;16113566;19;131257;-63
2023/12/25 15:36:45;;;;;;;4.45;0.70;;;;;;;21.98;47.14;100770.69;16114417;19;129977;-63
2023/12/25 15:42:08;;;;;;;3.42;0.60;;;;;;;21.94;46.98;100775.97;16111113;19;130921;-63
2023/12/25 15:47:30;;;;;;;7.57;0.75;;;;;;;21.92;46.94;100782.91;16113402;19;130453;-64
2023/12/25 15:52:53;;;;;;;7.20;0.70;;;;;;;21.88;46.97;100776.22;16107362;19;131818;-58
2023/12/25 15:58:17;;;;;;;5.93;0.73;;;;;;;21.80;47.00;100781.19;16114157;19;129632;-56
2023/12/25 16:03:39;;;;;;;5.10;0.70;;;;;;;21.74;46.89;100787.84;16108548;19;130645;-60
2023/12/25 16:09:01;;;;;;;6.00;0.88;;;;;;;21.66;47.08;100777.25;16108622;19;131080;-61
2023/12/25 16:14:24;;;;;;;4.00;1.13;;;;;;;21.56;47.27;100779.94;16102626;19;129498;-61
2023/12/25 16:19:46;;;;;;;5.63;1.10;;;;;;;21.47;47.40;100783.22;16110393;19;130541;-63
2023/12/25 16:25:08;;;;;;;10.27;1.35;;;;;;;21.40;47.23;100782.63;16104416;19;129436;-61
2023/12/25 16:30:31;;;;;;;6.57;0.80;;;;;;;21.36;47.62;100787.88;16102237;19;129827;-62
2023/12/25 16:36:01;;;;;;;5.55;1.83;;;;;;;21.32;46.75;100786.75;16106478;19;130584;-62
2023/12/25 16:41:25;;;;;;;15.90;7.28;;;;;;;21.29;47.17;100778.94;16106392;19;132468;-61
2023/12/25 16:46:47;;;;;;;28.42;13.82;;;;;;;21.31;47.78;100789.78;16108998;19;129559;-61
2023/12/25 16:52:09;;;;;;;37.65;15.93;;;;;;;21.27;47.28;100791.44;16106285;19;129459;-61
2023/12/25 16:57:31;;;;;;;35.15;16.92;;;;;;;21.27;47.48;100791.44;16108090;19;130055;-61
2023/12/25 17:02:53;;;;;;;36.47;17.23;;;;;;;21.31;47.69;100787.00;16110262;19;131222;-61
2023/12/25 17:08:15;;;;;;;48.65;29.45;;;;;;;21.32;47.31;100781.19;16127016;19;129869;-60
2023/12/25 17:13:37;;;;;;;32.95;20.13;;;;;;;21.32;48.09;100788.69;16123454;19;130163;-62
2023/12/25 17:18:59;;;;;;;35.95;20.63;;;;;;;21.34;47.65;100778.13;16120390;19;130189;-61
2023/12/25 17:24:21;;;;;;;38.92;21.92;;;;;;;21.34;48.13;100781.75;16117006;19;130932;-61
2023/12/25 17:29:45;;;;;;;39.22;24.23;;;;;;;21.34;48.05;100778.13;16119950;19;130949;-62
2023/12/25 17:35:08;;;;;;;43.80;32.42;;;;;;;21.27;47.27;100786.69;16092006;19;130269;-64
2023/12/25 17:40:30;;;;;;;36.50;24.63;;;;;;;21.21;47.75;100785.84;16084327;19;131700;-64
2023/12/25 17:45:53;;;;;;;38.33;24.60;;;;;;;21.18;47.87;100789.13;16111066;19;129712;-62
2023/12/25 17:51:14;;;;;;;36.33;23.95;;;;;;;21.15;48.32;100788.84;16121096;19;133760;-58
2023/12/25 17:56:36;;;;;;;28.75;21.77;;;;;;;21.14;48.30;100784.38;16115956;19;130006;-64
2023/12/25 18:01:58;;;;;;;30.13;19.90;;;;;;;21.18;48.30;100760.50;16116049;19;129655;-62
2023/12/25 18:07:20;;;;;;;31.27;17.63;;;;;;;21.22;48.55;100768.03;16115480;19;131104;-60
2023/12/25 18:12:43;;;;;;;31.42;15.48;;;;;;;21.30;48.45;100768.63;16114342;19;129468;-61
2023/12/25 18:18:05;;;;;;;20.42;13.90;;;;;;;21.36;48.46;100771.16;16105961;19;130043;-62
2023/12/25 18:23:27;;;;;;;22.13;12.20;;;;;;;21.42;48.51;100768.44;16112889;19;129754;-62
2023/12/25 18:28:53;;;;;;;22.00;10.20;;;;;;;21.47;48.23;100776.81;16111005;19;130322;-62
2023/12/25 18:34:15;;;;;;;15.20;8.73;;;;;;;21.50;48.44;100766.00;16114737;19;130608;-61
2023/12/25 18:39:37;;;;;;;15.75;7.78;;;;;;;21.55;48.15;100761.56;16111747;19;129403;-62
2023/12/25 18:45:00;;;;;;;10.55;5.70;;;;;;;21.58;48.43;100756.31;16114059;19;135244;-62
2023/12/25 18:50:22;;;;;;;10.52;5.75;;;;;;;21.62;48.37;100764.97;16112738;19;132020;-61
2023/12/25 18:55:44;;;;;;;13.43;5.53;;;;;;;21.64;48.33;100749.66;16111468;19;130417;-61
2023/12/25 19:01:06;;;;;;;8.13;3.95;;;;;;;21.66;48.26;100752.19;16104347;19;131082;-61
2023/12/25 19:06:28;;;;;;;5.18;3.30;;;;;;;21.69;48.34;100736.88;16109963;19;129234;-62
2023/12/25 19:11:52;;;;;;;6.78;3.00;;;;;;;21.70;48.18;100739.38;16109835;19;129922;-61
2023/12/25 19:17:14;;;;;;;4.65;2.25;;;;;;;21.69;47.78;100737.69;16109021;19;133395;-61
2023/12/25 19:22:36;;;;;;;16.88;2.80;;;;;;;21.71;47.90;100743.84;16112594;19;129769;-59
2023/12/25 19:27:58;;;;;;;13.38;2.63;;;;;;;21.71;47.77;100738.25;16110737;19;130425;-60
2023/12/25 19:33:21;;;;;;;20.00;2.45;;;;;;;21.72;47.72;100728.81;16098211;19;130457;-58
2023/12/25 19:38:43;;;;;;;11.98;2.38;;;;;;;21.74;48.23;100726.59;16111208;19;130222;-60
2023/12/25 19:44:05;;;;;;;12.38;2.13;;;;;;;21.74;47.74;100721.03;16107664;19;129683;-64
2023/12/25 19:49:27;;;;;;;22.08;1.95;;;;;;;21.71;47.73;100727.13;16104156;19;131072;-59
2023/12/25 19:54:50;;;;;;;27.98;2.90;;;;;;;21.69;47.74;100712.63;16095545;19;131119;-60
2023/12/25 20:00:12;;;;;;;17.50;2.30;;;;;;;21.71;47.68;100713.22;16096923;19;130789;-60
2023/12/25 20:05:34;;;;;;;25.35;1.83;;;;;;;21.73;47.53;100708.22;16093877;19;134041;-59
2023/12/25 20:10:57;;;;;;;13.23;1.42;;;;;;;21.75;47.20;100706.00;16097734;19;131075;-60
2023/12/25 20:16:20;;;;;;;14.15;1.48;;;;;;;21.77;47.36;100714.06;16093830;19;131999;-61
2023/12/25 20:21:42;;;;;;;17.33;1.83;;;;;;;21.78;47.35;100708.25;16095455;19;130988;-60
2023/12/25 20:27:04;;;;;;;11.15;1.58;;;;;;;21.78;47.14;100705.47;16100002;19;129216;-60
2023/12/25 20:32:26;;;;;;;12.15;1.25;;;;;;;21.80;47.17;100707.97;16098089;19;132221;-60
2023/12/25 20:37:49;;;;;;;8.63;1.15;;;;;;;21.82;46.94;100706.56;16104613;19;129733;-61
2023/12/25 20:43:11;;;;;;;7.78;1.23;;;;;;;21.82;47.34;100695.44;16106593;19;130287;-60
2023/12/25 20:48:33;;;;;;;9.55;1.00;;;;;;;21.82;46.70;100695.44;16105682;19;129638;-60
2023/12/25 20:53:55;;;;;;;6.18;0.95;;;;;;;21.83;46.99;100708.25;16102823;19;130504;-60
2023/12/25 20:59:18;;;;;;;8.52;0.80;;;;;;;21.84;47.07;100703.53;16109621;19;130428;-61
2023/12/25 21:04:40;;;;;;;5.30;0.68;;;;;;;21.85;46.98;100696.81;16102890;19;134566;-60
2023/12/25 21:10:02;;;;;;;7.60;1.38;;;;;;;21.83;46.56;100687.94;16100061;19;129433;-61
2023/12/25 21:15:26;;;;;;;6.00;0.75;;;;;;;21.80;46.76;100689.28;16100347;19;129758;-59
2023/12/25 21:20:48;;;;;;;6.40;0.60;;;;;;;21.73;46.63;100685.94;16104452;19;132521;-61
2023/12/25 21:26:12;;;;;;;5.20;0.68;;;;;;;21.66;46.35;100688.97;16107874;19;131077;-62
2023/12/25 21:31:34;;;;;;;7.13;0.73;;;;;;;21.59;46.26;100687.56;16099911;19;131039;-62
2023/12/25 21:36:56;;;;;;;6.32;0.50;;;;;;;21.48;46.21;100679.13;16106072;19;130059;-61
2023/12/25 21:42:18;;;;;;;5.93;1.02;;;;;;;21.40;46.44;100676.03;16106497;19;131000;-62
2023/12/25 21:47:40;;;;;;;4.28;0.43;;;;;;;21.32;46.47;100685.72;16101720;19;134784;-61
2023/12/25 21:53:02;;;;;;;4.85;0.50;;;;;;;21.26;46.13;100678.47;16119009;19;129772;-61
2023/12/25 21:58:24;;;;;;;8.05;0.50;;;;;;;21.17;46.32;100684.53;16121991;19;129907;-61
2023/12/25 22:03:46;;;;;;;3.88;0.45;;;;;;;21.09;46.17;100693.41;16117772;19;130062;-61
2023/12/25 22:09:08;;;;;;;3.75;0.63;;;;;;;21.02;45.88;100678.91;16118606;19;130182;-61
2023/12/25 22:14:30;;;;;;;2.65;0.60;;;;;;;20.95;45.69;100693.03;16120946;19;129782;-61
2023/12/25 22:19:53;;;;;;;4.80;0.40;;;;;;;20.87;46.07;100685.19;16114218;19;130371;-62
2023/12/25 22:25:18;;;;;;;4.43;0.43;;;;;;;20.81;45.96;100687.09;16110087;19;130894;-62
2023/12/25 22:30:40;;;;;;;2.10;0.40;;;;;;;20.77;46.09;100685.13;16111406;19;130993;-61
2023/12/25 22:36:03;;;;;;;1.65;0.40;;;;;;;20.69;45.94;100703.09;16116465;19;130309;-62
2023/12/25 22:41:25;;;;;;;2.75;0.28;;;;;;;20.64;46.03;100686.38;16115047;19;130512;-61
2023/12/25 22:46:47;;;;;;;2.50;0.43;;;;;;;20.57;45.72;100690.22;16116429;19;131272;-62
2023/12/25 22:52:09;;;;;;;6.07;0.50;;;;;;;20.53;46.15;100677.13;16114915;19;130234;-62
2023/12/25 22:57:31;;;;;;;1.67;0.28;;;;;;;20.48;45.56;100683.47;16118320;19;129722;-62
2023/12/25 23:02:53;;;;;;;0.75;0.47;;;;;;;20.42;45.89;100677.03;16110367;19;129543;-61
2023/12/25 23:08:15;;;;;;;0.73;0.25;;;;;;;20.38;45.68;100688.94;16114914;19;129657;-62
2023/12/25 23:13:37;;;;;;;2.30;0.20;;;;;;;20.33;45.76;100681.41;16114057;19;129761;-60
2023/12/25 23:18:59;;;;;;;0.73;0.10;;;;;;;20.28;45.92;100670.25;16113570;19;130256;-61
2023/12/25 23:24:22;;;;;;;2.10;0.30;;;;;;;20.23;45.79;100684.91;16108558;19;129519;-62
2023/12/25 23:29:44;;;;;;;0.85;0.30;;;;;;;20.19;45.52;100674.59;16112799;19;131094;-61
2023/12/25 23:35:06;;;;;;;1.27;0.20;;;;;;;20.15;46.00;100674.31;16109030;19;131356;-61
2023/12/25 23:40:28;;;;;;;2.80;0.35;;;;;;;20.11;45.79;100670.38;16110152;19;129688;-61
2023/12/25 23:45:50;;;;;;;0.10;0.10;;;;;;;20.08;45.75;100673.66;16111542;19;131086;-59
2023/12/25 23:51:12;;;;;;;1.35;0.38;;;;;;;20.03;45.90;100670.84;16108886;19;129477;-62
2023/12/25 23:56:35;;;;;;;2.35;0.32;;;;;;;19.99;45.71;100660.25;16110148;19;129480;-61
